Skip Navigation

Christman Field Latest Observations

Switch to metric unitsOther observation timesWeekly graphs

Date Time
MST
Temp
°F
RH
%
DewPt
°F
Wind
mph
Dir
°
Gust
mph
Dir
°
Press
in Hg
Solar
W/m^2
Prec
in
2018-08-20 06:25 49.8 87.0 46.1 0.0 42 0.0 42 25.081 86.0 0.00
2018-08-20 06:20 49.4 86.8 45.6 0.0 42 0.0 42 25.081 76.3 0.00
2018-08-20 06:15 49.0 87.8 45.5 0.0 42 0.0 42 25.081 66.1 0.00
2018-08-20 06:10 49.0 87.2 45.3 0.0 42 0.0 42 25.080 56.3 0.00
2018-08-20 06:05 48.9 87.7 45.5 0.3 42 1.2 121 25.080 47.6 0.00
2018-08-20 06:00 49.4 84.6 44.9 0.0 128 0.0 128 25.080 39.8 0.00
2018-08-20 05:55 49.7 85.2 45.4 0.0 128 0.0 128 25.079 32.8 0.00
2018-08-20 05:50 50.6 83.4 45.7 0.1 128 1.2 125 25.080 26.9 0.00
2018-08-20 05:45 51.0 82.3 45.8 1.7 125 3.0 98 25.076 21.5 0.00
2018-08-20 05:40 51.0 82.7 45.9 2.4 107 5.0 108 25.073 16.6 0.00
2018-08-20 05:35 51.4 84.1 46.7 2.8 110 4.2 87 25.073 12.0 0.00
2018-08-20 05:30 51.7 83.2 46.7 2.2 101 3.6 94 25.073 8.0 0.00
2018-08-20 05:25 51.7 82.9 46.7 2.1 112 3.8 92 25.073 4.8 0.00
2018-08-20 05:20 52.0 82.5 46.8 2.1 113 3.3 99 25.071 3.5 0.00
2018-08-20 05:15 52.4 81.4 46.9 1.6 94 2.8 94 25.071 1.9 0.00
2018-08-20 05:10 52.6 80.5 46.8 1.8 97 3.0 110 25.070 1.0 0.00
2018-08-20 05:05 52.8 80.2 46.8 2.9 109 4.4 116 25.069 0.4 0.00
2018-08-20 05:00 53.0 79.3 46.8 2.7 124 4.3 140 25.067 0.1 0.00
2018-08-20 04:55 53.3 78.1 46.6 2.2 107 3.5 114 25.066 0.0 0.00
2018-08-20 04:50 53.3 77.3 46.4 3.2 105 4.7 132 25.066 0.0 0.00
2018-08-20 04:45 53.4 77.2 46.5 3.3 124 4.9 146 25.067 0.0 0.00
2018-08-20 04:40 53.4 77.0 46.4 4.0 129 5.6 160 25.068 0.0 0.00
2018-08-20 04:35 53.3 77.3 46.4 5.3 147 7.5 162 25.068 0.0 0.00
2018-08-20 04:30 53.3 78.8 46.9 2.9 148 5.5 126 25.067 0.0 0.00
2018-08-20 04:25 53.3 80.1 47.4 2.2 140 3.8 138 25.066 0.0 0.00
2018-08-20 04:20 53.3 80.1 47.3 3.0 143 4.8 138 25.067 0.0 0.00
2018-08-20 04:15 53.2 80.8 47.4 3.4 129 5.7 145 25.068 0.0 0.00
2018-08-20 04:10 53.0 82.2 47.7 3.8 151 6.0 164 25.069 0.0 0.00
2018-08-20 04:05 53.0 83.5 48.1 3.7 162 6.1 162 25.070 0.0 0.00
2018-08-20 04:00 53.0 82.7 47.9 4.5 167 5.8 156 25.070 0.0 0.00